AirNav   Air Wisconsin Up To $57,000 Bonus
 
 1576 users online  

73CL Julian Hinds Pump Plant Airstrip
Desert Center, California, USA

GOING TO DESERT CENTER?


FAA INFORMATION EFFECTIVE 04 NOVEMBER 2021

Location

FAA Identifier: 73CL
Lat/Long: 33-41-56.0670N 115-38-12.9580W
33-41.934450N 115-38.215967W
33.6989075,-115.6369328
(estimated)
Elevation: 1335 ft. / 406.9 m (surveyed)
Variation: 13E (1985)
From city: 12 miles W of DESERT CENTER, CA
Time zone: UTC -7 (UTC -8 during Standard Time)
Zip code: 92257

Airport Operations

Airport use: Private use. Permission required prior to landing
Activation date: 05/1976
Control tower: no
ARTCC: LOS ANGELES CENTER
FSS: RIVERSIDE FLIGHT SERVICE STATION
Attendance: UNATNDD
Wind indicator: yes
Segmented circle: no

Nearby radio navigation aids

VOR radial/distance  VOR name  Freq  Var
TNPr150/25.7TWENTYNINE PALMS VORTAC114.2015E
TRMr068/26.5THERMAL VORTAC116.2013E

Airport Services

Runway Information

Runway 4/22

Dimensions: 2000 x 30 ft. / 610 x 9 m
Surface: asphalt
RUNWAY 4  RUNWAY 22
Traffic pattern: leftleft

Airport Ownership and Management from official FAA records

Ownership: Privately-owned
Owner: THE METRO WATER DIST OF S CA
158000 MWD RD
PARKER DAM, CA 92267
Phone (442) 262-2500
Manager: JOSEPH MIZIA
158000 MWD RD
PARKER DAM, CA 92267
Phone (442) 262-2531

Additional Remarks

FOR CD CTC LOS ANGELES ARTCC AT 661-575-2079.

Instrument Procedures

There are no published instrument procedures at 73CL.

Some nearby airports with instrument procedures:

KTRM - Jacqueline Cochran Regional Airport (26 nm W)
KTNP - Twentynine Palms Airport (30 nm NW)
KUDD - Bermuda Dunes Airport (32 nm W)
KCLR - Cliff Hatfield Memorial Airport (35 nm S)
KBWC - Brawley Municipal Airport (43 nm S)
 
Loc | Ops | Rwys | IFR | FBO | Links
Com | Nav | Svcs | Stats | Notes
Area around 73CL (Julian Hinds Pump Plant Airstrip)
 
Road maps at: MapQuest Bing Google
 
Aerial photo
No photo
 
Sectional chart

 
Airport distance calculator
Flying to Julian Hinds Pump Plant Airstrip? Find the distance to fly.

From to 73CL

Sunrise and sunset
Times for 30-Nov-2021
 Local
(UTC-8)
 Zulu
(UTC)
Morning civil twilight06:0214:02
Sunrise06:2914:29
Sunset16:3300:33
Evening civil twilight17:0001:00

Current date and time
Zulu (UTC)  30-Nov-2021 18:25:08
Local (UTC-8)  30-Nov-2021 10:25:08
 
METAR
KTRM 
27nm W 
301752Z AUTO 16003KT 10SM CLR 22/04 A3004 RMK AO2 SLP173 T02170039 10217 20050 51012
KL08 
43nm SW 
301755Z AUTO 00000KT 10SM CLR 23/M08 A3006 RMK AO2
KPSP 
44nm W 
301753Z 24003KT 10SM CLR 26/05 A3007 RMK AO2 SLP180 T02560050 10267 20128 51010 $
KNXP 
44nm NW 
301756Z AUTO 31006KT 10SM CLR 22/M10 A3022 RMK AO2 SLP208 T02221100 10222 20089 50009
KBLH 
46nm E 
301752Z AUTO 00000KT 10SM CLR 20/M10 A3009 RMK AO2 SLP186 T02001100 10200 20072 51012
TAF
KTRM 
27nm W 
300538Z 3006/0106 36005KT P6SM SKC FM301900 14007KT P6SM SKC FM010300 32006KT P6SM SKC
NOTAMs
Click for the latest NOTAMs
NOTAMs are issued by the DoD/FAA and will open in a separate window not controlled by AirNav.

 

 
 

Would you like to see your business listed on this page?

 If your business provides an interesting product or service to pilots, flight crews, aircraft, or users of the Julian Hinds Pump Plant Airstrip, you should consider listing it here.  To start the listing process, click on the button below
 
Add a business
 

Other Pages about Julian Hinds Pump Plant Airstrip

Update a link
 
Copyright © AirNav, LLC. All rights reserved. Privacy Policy  Contact